sensor_id;sensor_type;location;lat;lon;timestamp;P1;durP1;ratioP1;P2;durP2;ratioP2
7523;SDS011;3803;51.666;7.630;2022-07-04T00:00:13;2.50;;;1.90;;
7523;SDS011;3803;51.666;7.630;2022-07-04T00:00:35;2.45;;;1.90;;
7523;SDS011;3803;51.666;7.630;2022-07-04T00:00:56;2.80;;;2.00;;
7523;SDS011;3803;51.666;7.630;2022-07-04T00:01:17;2.40;;;2.15;;
7523;SDS011;3803;51.666;7.630;2022-07-04T00:01:37;2.53;;;2.22;;
7523;SDS011;3803;51.666;7.630;2022-07-04T00:01:58;2.40;;;2.20;;
7523;SDS011;3803;51.666;7.630;2022-07-04T00:02:19;2.58;;;2.10;;
7523;SDS011;3803;51.666;7.630;2022-07-04T00:02:40;2.10;;;1.90;;
7523;SDS011;3803;51.666;7.630;2022-07-04T00:03:02;2.10;;;1.90;;
7523;SDS011;3803;51.666;7.630;2022-07-04T00:03:23;2.40;;;2.20;;
7523;SDS011;3803;51.666;7.630;2022-07-04T00:03:43;2.45;;;2.25;;
7523;SDS011;3803;51.666;7.630;2022-07-04T00:04:05;3.70;;;2.30;;
7523;SDS011;3803;51.666;7.630;2022-07-04T00:04:26;3.90;;;2.10;;
7523;SDS011;3803;51.666;7.630;2022-07-04T00:04:46;4.25;;;2.00;;
7523;SDS011;3803;51.666;7.630;2022-07-04T00:05:07;3.13;;;1.90;;
7523;SDS011;3803;51.666;7.630;2022-07-04T00:05:30;2.80;;;1.90;;
7523;SDS011;3803;51.666;7.630;2022-07-04T00:05:51;3.00;;;2.10;;
7523;SDS011;3803;51.666;7.630;2022-07-04T00:06:12;2.73;;;2.30;;
7523;SDS011;3803;51.666;7.630;2022-07-04T00:06:32;2.92;;;2.42;;
7523;SDS011;3803;51.666;7.630;2022-07-04T00:06:53;2.60;;;2.40;;
7523;SDS011;3803;51.666;7.630;2022-07-04T00:07:14;2.50;;;2.30;;
7523;SDS011;3803;51.666;7.630;2022-07-04T00:07:35;2.40;;;2.20;;
7523;SDS011;3803;51.666;7.630;2022-07-04T00:08:07;2.30;;;2.10;;
7523;SDS011;3803;51.666;7.630;2022-07-04T00:08:28;2.28;;;2.08;;
7523;SDS011;3803;51.666;7.630;2022-07-04T00:08:48;2.40;;;2.20;;
7523;SDS011;3803;51.666;7.630;2022-07-04T00:09:09;2.13;;;2.03;;
7523;SDS011;3803;51.666;7.630;2022-07-04T00:09:31;2.40;;;2.20;;
7523;SDS011;3803;51.666;7.630;2022-07-04T00:09:52;2.80;;;2.10;;
7523;SDS011;3803;51.666;7.630;2022-07-04T00:10:13;3.70;;;2.20;;
7523;SDS011;3803;51.666;7.630;2022-07-04T00:10:37;3.17;;;2.17;;
7523;SDS011;3803;51.666;7.630;2022-07-04T00:10:58;3.30;;;2.22;;
7523;SDS011;3803;51.666;7.630;2022-07-04T00:11:19;3.55;;;2.45;;
7523;SDS011;3803;51.666;7.630;2022-07-04T00:11:40;3.53;;;2.30;;
7523;SDS011;3803;51.666;7.630;2022-07-04T00:12:06;3.40;;;2.20;;
7523;SDS011;3803;51.666;7.630;2022-07-04T00:12:27;2.80;;;2.00;;
7523;SDS011;3803;51.666;7.630;2022-07-04T00:12:47;2.45;;;2.22;;
7523;SDS011;3803;51.666;7.630;2022-07-04T00:13:09;2.63;;;2.40;;
7523;SDS011;3803;51.666;7.630;2022-07-04T00:13:29;2.63;;;2.40;;
7523;SDS011;3803;51.666;7.630;2022-07-04T00:13:50;2.67;;;2.25;;
7523;SDS011;3803;51.666;7.630;2022-07-04T00:14:11;2.30;;;2.10;;
7523;SDS011;3803;51.666;7.630;2022-07-04T00:14:32;2.30;;;2.10;;
7523;SDS011;3803;51.666;7.630;2022-07-04T00:14:52;2.28;;;2.08;;
7523;SDS011;3803;51.666;7.630;2022-07-04T00:15:13;2.83;;;2.10;;
7523;SDS011;3803;51.666;7.630;2022-07-04T00:15:34;2.70;;;2.00;;
7523;SDS011;3803;51.666;7.630;2022-07-04T00:15:55;2.58;;;2.00;;
7523;SDS011;3803;51.666;7.630;2022-07-04T00:16:16;2.10;;;1.90;;
7523;SDS011;3803;51.666;7.630;2022-07-04T00:16:37;2.40;;;2.00;;
7523;SDS011;3803;51.666;7.630;2022-07-04T00:16:57;2.40;;;2.00;;
7523;SDS011;3803;51.666;7.630;2022-07-04T00:17:18;2.97;;;2.20;;
7523;SDS011;3803;51.666;7.630;2022-07-04T00:17:39;2.40;;;2.20;;
7523;SDS011;3803;51.666;7.630;2022-07-04T00:18:01;2.30;;;2.10;;
7523;SDS011;3803;51.666;7.630;2022-07-04T00:18:22;2.20;;;2.10;;
7523;SDS011;3803;51.666;7.630;2022-07-04T00:18:43;2.20;;;2.00;;
7523;SDS011;3803;51.666;7.630;2022-07-04T00:19:03;2.40;;;2.00;;
7523;SDS011;3803;51.666;7.630;2022-07-04T00:19:24;4.30;;;1.90;;
7523;SDS011;3803;51.666;7.630;2022-07-04T00:19:45;4.07;;;1.80;;
7523;SDS011;3803;51.666;7.630;2022-07-04T00:20:06;4.72;;;1.92;;
7523;SDS011;3803;51.666;7.630;2022-07-04T00:20:28;3.30;;;2.10;;
7523;SDS011;3803;51.666;7.630;2022-07-04T00:20:48;3.78;;;2.20;;
7523;SDS011;3803;51.666;7.630;2022-07-04T00:21:09;2.40;;;2.00;;
7523;SDS011;3803;51.666;7.630;2022-07-04T00:21:30;2.40;;;2.00;;
7523;SDS011;3803;51.666;7.630;2022-07-04T00:21:50;1.98;;;1.88;;
7523;SDS011;3803;51.666;7.630;2022-07-04T00:22:11;2.20;;;2.00;;
7523;SDS011;3803;51.666;7.630;2022-07-04T00:22:32;2.20;;;2.10;;
7523;SDS011;3803;51.666;7.630;2022-07-04T00:22:53;2.50;;;2.30;;
7523;SDS011;3803;51.666;7.630;2022-07-04T00:23:14;2.50;;;2.30;;
7523;SDS011;3803;51.666;7.630;2022-07-04T00:23:35;2.60;;;2.40;;
7523;SDS011;3803;51.666;7.630;2022-07-04T00:23:56;2.63;;;2.30;;
7523;SDS011;3803;51.666;7.630;2022-07-04T00:24:17;2.40;;;2.20;;
7523;SDS011;3803;51.666;7.630;2022-07-04T00:24:38;2.25;;;2.05;;
7523;SDS011;3803;51.666;7.630;2022-07-04T00:24:59;2.20;;;2.00;;
7523;SDS011;3803;51.666;7.630;2022-07-04T00:25:20;2.78;;;2.20;;
7523;SDS011;3803;51.666;7.630;2022-07-04T00:25:40;2.97;;;2.27;;
7523;SDS011;3803;51.666;7.630;2022-07-04T00:26:01;2.33;;;2.05;;
7523;SDS011;3803;51.666;7.630;2022-07-04T00:26:22;2.20;;;2.00;;
7523;SDS011;3803;51.666;7.630;2022-07-04T00:26:42;2.20;;;2.00;;
7523;SDS011;3803;51.666;7.630;2022-07-04T00:27:03;3.40;;;2.13;;
7523;SDS011;3803;51.666;7.630;2022-07-04T00:27:25;3.70;;;2.20;;
7523;SDS011;3803;51.666;7.630;2022-07-04T00:27:45;3.70;;;2.20;;
7523;SDS011;3803;51.666;7.630;2022-07-04T00:28:07;3.50;;;2.30;;
7523;SDS011;3803;51.666;7.630;2022-07-04T00:28:27;3.10;;;2.20;;
7523;SDS011;3803;51.666;7.630;2022-07-04T00:28:48;2.40;;;2.20;;
7523;SDS011;3803;51.666;7.630;2022-07-04T00:29:09;3.30;;;2.30;;
7523;SDS011;3803;51.666;7.630;2022-07-04T00:29:30;3.53;;;2.25;;
7523;SDS011;3803;51.666;7.630;2022-07-04T00:29:51;4.57;;;2.20;;
7523;SDS011;3803;51.666;7.630;2022-07-04T00:30:12;3.40;;;2.03;;
7523;SDS011;3803;51.666;7.630;2022-07-04T00:30:33;3.28;;;2.20;;
7523;SDS011;3803;51.666;7.630;2022-07-04T00:30:53;3.13;;;2.30;;
7523;SDS011;3803;51.666;7.630;2022-07-04T00:31:14;3.23;;;2.30;;
7523;SDS011;3803;51.666;7.630;2022-07-04T00:31:35;3.25;;;2.25;;
7523;SDS011;3803;51.666;7.630;2022-07-04T00:31:56;2.30;;;2.10;;
7523;SDS011;3803;51.666;7.630;2022-07-04T00:32:17;2.30;;;2.10;;
7523;SDS011;3803;51.666;7.630;2022-07-04T00:32:38;2.30;;;2.10;;
7523;SDS011;3803;51.666;7.630;2022-07-04T00:32:59;2.38;;;2.17;;
7523;SDS011;3803;51.666;7.630;2022-07-04T00:33:20;2.20;;;2.00;;
7523;SDS011;3803;51.666;7.630;2022-07-04T00:33:40;2.20;;;2.00;;
7523;SDS011;3803;51.666;7.630;2022-07-04T00:34:01;2.38;;;2.00;;
7523;SDS011;3803;51.666;7.630;2022-07-04T00:34:22;2.37;;;2.10;;
7523;SDS011;3803;51.666;7.630;2022-07-04T00:34:42;2.67;;;2.10;;
7523;SDS011;3803;51.666;7.630;2022-07-04T00:35:04;2.60;;;2.10;;
7523;SDS011;3803;51.666;7.630;2022-07-04T00:35:25;2.42;;;2.20;;
7523;SDS011;3803;51.666;7.630;2022-07-04T00:35:46;2.42;;;2.20;;
7523;SDS011;3803;51.666;7.630;2022-07-04T00:36:07;2.50;;;2.30;;
7523;SDS011;3803;51.666;7.630;2022-07-04T00:36:27;3.97;;;2.38;;
7523;SDS011;3803;51.666;7.630;2022-07-04T00:36:48;4.18;;;2.38;;
7523;SDS011;3803;51.666;7.630;2022-07-04T00:37:09;4.57;;;2.30;;
7523;SDS011;3803;51.666;7.630;2022-07-04T00:37:30;2.93;;;2.10;;
7523;SDS011;3803;51.666;7.630;2022-07-04T00:37:51;2.45;;;2.03;;
7523;SDS011;3803;51.666;7.630;2022-07-04T00:38:12;2.63;;;2.03;;
7523;SDS011;3803;51.666;7.630;2022-07-04T00:38:33;2.63;;;2.10;;
7523;SDS011;3803;51.666;7.630;2022-07-04T00:38:54;2.47;;;2.20;;
7523;SDS011;3803;51.666;7.630;2022-07-04T00:39:14;2.30;;;2.10;;
7523;SDS011;3803;51.666;7.630;2022-07-04T00:39:35;2.58;;;2.10;;
7523;SDS011;3803;51.666;7.630;2022-07-04T00:39:56;2.70;;;2.10;;
7523;SDS011;3803;51.666;7.630;2022-07-04T00:40:17;2.83;;;2.10;;
7523;SDS011;3803;51.666;7.630;2022-07-04T00:40:38;2.10;;;1.90;;
7523;SDS011;3803;51.666;7.630;2022-07-04T00:40:59;2.30;;;2.00;;
7523;SDS011;3803;51.666;7.630;2022-07-04T00:41:20;2.50;;;2.30;;
7523;SDS011;3803;51.666;7.630;2022-07-04T00:41:41;2.90;;;2.63;;
7523;SDS011;3803;51.666;7.630;2022-07-04T00:42:02;3.10;;;2.80;;
7523;SDS011;3803;51.666;7.630;2022-07-04T00:42:24;2.83;;;2.60;;
7523;SDS011;3803;51.666;7.630;2022-07-04T00:42:44;3.33;;;2.47;;
7523;SDS011;3803;51.666;7.630;2022-07-04T00:43:05;3.33;;;2.38;;
7523;SDS011;3803;51.666;7.630;2022-07-04T00:43:27;2.70;;;2.20;;
7523;SDS011;3803;51.666;7.630;2022-07-04T00:44:07;2.50;;;2.28;;
7523;SDS011;3803;51.666;7.630;2022-07-04T00:44:29;3.22;;;2.30;;
7523;SDS011;3803;51.666;7.630;2022-07-04T00:44:51;5.10;;;2.50;;
7523;SDS011;3803;51.666;7.630;2022-07-04T00:45:12;4.57;;;2.50;;
7523;SDS011;3803;51.666;7.630;2022-07-04T00:45:32;4.47;;;2.40;;
7523;SDS011;3803;51.666;7.630;2022-07-04T00:45:53;5.20;;;2.30;;
7523;SDS011;3803;51.666;7.630;2022-07-04T00:46:14;6.50;;;2.40;;
7523;SDS011;3803;51.666;7.630;2022-07-04T00:46:35;5.90;;;2.30;;
7523;SDS011;3803;51.666;7.630;2022-07-04T00:46:55;3.50;;;1.90;;
7523;SDS011;3803;51.666;7.630;2022-07-04T00:47:16;2.38;;;1.90;;
7523;SDS011;3803;51.666;7.630;2022-07-04T00:47:37;3.38;;;2.10;;
7523;SDS011;3803;51.666;7.630;2022-07-04T00:47:58;2.80;;;2.13;;
7523;SDS011;3803;51.666;7.630;2022-07-04T00:48:18;3.10;;;2.13;;
7523;SDS011;3803;51.666;7.630;2022-07-04T00:48:39;3.55;;;2.28;;
7523;SDS011;3803;51.666;7.630;2022-07-04T00:49:00;3.58;;;2.20;;
7523;SDS011;3803;51.666;7.630;2022-07-04T00:49:22;2.90;;;2.17;;
7523;SDS011;3803;51.666;7.630;2022-07-04T00:49:45;2.20;;;2.00;;
7523;SDS011;3803;51.666;7.630;2022-07-04T00:50:06;2.40;;;2.10;;
7523;SDS011;3803;51.666;7.630;2022-07-04T00:50:28;3.17;;;2.00;;
7523;SDS011;3803;51.666;7.630;2022-07-04T00:50:48;2.70;;;1.83;;
7523;SDS011;3803;51.666;7.630;2022-07-04T00:51:10;3.25;;;1.90;;
7523;SDS011;3803;51.666;7.630;2022-07-04T00:51:31;2.43;;;1.90;;
7523;SDS011;3803;51.666;7.630;2022-07-04T00:51:52;5.38;;;2.20;;
7523;SDS011;3803;51.666;7.630;2022-07-04T00:52:13;5.20;;;2.10;;
7523;SDS011;3803;51.666;7.630;2022-07-04T00:52:34;5.55;;;2.20;;
7523;SDS011;3803;51.666;7.630;2022-07-04T00:52:56;2.88;;;2.00;;
7523;SDS011;3803;51.666;7.630;2022-07-04T00:53:17;3.58;;;2.20;;
7523;SDS011;3803;51.666;7.630;2022-07-04T00:53:39;3.35;;;2.10;;
7523;SDS011;3803;51.666;7.630;2022-07-04T00:54:00;6.70;;;2.50;;
7523;SDS011;3803;51.666;7.630;2022-07-04T00:54:21;6.18;;;2.45;;
7523;SDS011;3803;51.666;7.630;2022-07-04T00:54:46;5.50;;;2.45;;
7523;SDS011;3803;51.666;7.630;2022-07-04T00:55:08;5.03;;;2.40;;
7523;SDS011;3803;51.666;7.630;2022-07-04T00:55:29;4.60;;;2.30;;
7523;SDS011;3803;51.666;7.630;2022-07-04T00:55:51;2.60;;;2.03;;
7523;SDS011;3803;51.666;7.630;2022-07-04T00:56:12;2.20;;;1.90;;
7523;SDS011;3803;51.666;7.630;2022-07-04T00:56:37;2.20;;;1.90;;
7523;SDS011;3803;51.666;7.630;2022-07-04T00:56:59;2.30;;;2.10;;
7523;SDS011;3803;51.666;7.630;2022-07-04T00:57:21;3.28;;;2.20;;
7523;SDS011;3803;51.666;7.630;2022-07-04T00:57:42;3.85;;;2.10;;
7523;SDS011;3803;51.666;7.630;2022-07-04T00:58:03;3.50;;;2.00;;
7523;SDS011;3803;51.666;7.630;2022-07-04T00:58:23;2.97;;;2.00;;
7523;SDS011;3803;51.666;7.630;2022-07-04T00:58:44;2.40;;;2.20;;
7523;SDS011;3803;51.666;7.630;2022-07-04T00:59:06;3.60;;;2.30;;
7523;SDS011;3803;51.666;7.630;2022-07-04T00:59:27;3.13;;;2.20;;
7523;SDS011;3803;51.666;7.630;2022-07-04T00:59:48;3.65;;;2.10;;
7523;SDS011;3803;51.666;7.630;2022-07-04T01:00:09;3.40;;;2.08;;
7523;SDS011;3803;51.666;7.630;2022-07-04T01:00:30;3.53;;;2.00;;
7523;SDS011;3803;51.666;7.630;2022-07-04T01:00:51;2.40;;;2.00;;
7523;SDS011;3803;51.666;7.630;2022-07-04T01:01:12;2.30;;;2.00;;
7523;SDS011;3803;51.666;7.630;2022-07-04T01:01:33;2.20;;;2.00;;
7523;SDS011;3803;51.666;7.630;2022-07-04T01:01:55;2.05;;;1.95;;
7523;SDS011;3803;51.666;7.630;2022-07-04T01:02:16;3.45;;;2.10;;
7523;SDS011;3803;51.666;7.630;2022-07-04T01:02:37;4.32;;;2.38;;
7523;SDS011;3803;51.666;7.630;2022-07-04T01:02:57;4.80;;;2.37;;
7523;SDS011;3803;51.666;7.630;2022-07-04T01:03:18;3.35;;;2.20;;
7523;SDS011;3803;51.666;7.630;2022-07-04T01:03:39;3.22;;;2.00;;
7523;SDS011;3803;51.666;7.630;2022-07-04T01:04:01;4.45;;;2.13;;
7523;SDS011;3803;51.666;7.630;2022-07-04T01:04:23;5.03;;;2.40;;
7523;SDS011;3803;51.666;7.630;2022-07-04T01:04:45;5.60;;;2.50;;
7523;SDS011;3803;51.666;7.630;2022-07-04T01:05:06;3.90;;;2.40;;
7523;SDS011;3803;51.666;7.630;2022-07-04T01:05:27;4.03;;;2.30;;
7523;SDS011;3803;51.666;7.630;2022-07-04T01:05:47;4.20;;;2.30;;
7523;SDS011;3803;51.666;7.630;2022-07-04T01:06:08;3.63;;;2.10;;
7523;SDS011;3803;51.666;7.630;2022-07-04T01:08:49;3.08;;;2.10;;
7523;SDS011;3803;51.666;7.630;2022-07-04T01:09:09;5.90;;;2.22;;
7523;SDS011;3803;51.666;7.630;2022-07-04T01:09:31;5.95;;;2.35;;
7523;SDS011;3803;51.666;7.630;2022-07-04T01:09:52;5.47;;;2.30;;
7523;SDS011;3803;51.666;7.630;2022-07-04T01:10:13;2.42;;;2.22;;
7523;SDS011;3803;51.666;7.630;2022-07-04T01:10:33;3.55;;;2.20;;
7523;SDS011;3803;51.666;7.630;2022-07-04T01:10:54;4.93;;;2.33;;
7523;SDS011;3803;51.666;7.630;2022-07-04T01:11:15;6.13;;;2.30;;
7523;SDS011;3803;51.666;7.630;2022-07-04T01:11:37;5.10;;;2.50;;
7523;SDS011;3803;51.666;7.630;2022-07-04T01:11:57;3.83;;;2.40;;
7523;SDS011;3803;51.666;7.630;2022-07-04T01:12:25;5.10;;;2.70;;
7523;SDS011;3803;51.666;7.630;2022-07-04T01:12:49;5.40;;;2.63;;
7523;SDS011;3803;51.666;7.630;2022-07-04T01:13:22;5.28;;;2.40;;
7523;SDS011;3803;51.666;7.630;2022-07-04T01:13:44;3.20;;;2.20;;
7523;SDS011;3803;51.666;7.630;2022-07-04T01:14:05;2.80;;;2.15;;
7523;SDS011;3803;51.666;7.630;2022-07-04T01:14:28;2.97;;;2.10;;
7523;SDS011;3803;51.666;7.630;2022-07-04T01:14:49;3.03;;;2.20;;
7523;SDS011;3803;51.666;7.630;2022-07-04T01:15:09;3.23;;;2.10;;
7523;SDS011;3803;51.666;7.630;2022-07-04T01:15:31;3.00;;;2.20;;
7523;SDS011;3803;51.666;7.630;2022-07-04T01:15:51;2.40;;;2.20;;
7523;SDS011;3803;51.666;7.630;2022-07-04T01:16:12;2.90;;;2.40;;
7523;SDS011;3803;51.666;7.630;2022-07-04T01:16:33;3.00;;;2.40;;
7523;SDS011;3803;51.666;7.630;2022-07-04T01:16:55;3.13;;;2.25;;
7523;SDS011;3803;51.666;7.630;2022-07-04T01:17:16;2.47;;;2.00;;
7523;SDS011;3803;51.666;7.630;2022-07-04T01:17:37;4.05;;;2.00;;
7523;SDS011;3803;51.666;7.630;2022-07-04T01:17:57;4.20;;;2.20;;
7523;SDS011;3803;51.666;7.630;2022-07-04T01:18:18;5.20;;;2.50;;
7523;SDS011;3803;51.666;7.630;2022-07-04T01:18:39;5.20;;;3.10;;
7523;SDS011;3803;51.666;7.630;2022-07-04T01:19:01;5.15;;;3.00;;
7523;SDS011;3803;51.666;7.630;2022-07-04T01:19:23;3.63;;;2.53;;
7523;SDS011;3803;51.666;7.630;2022-07-04T01:19:44;2.28;;;2.08;;
7523;SDS011;3803;51.666;7.630;2022-07-04T01:20:05;3.13;;;2.10;;
7523;SDS011;3803;51.666;7.630;2022-07-04T01:20:33;3.70;;;2.40;;
7523;SDS011;3803;51.666;7.630;2022-07-04T01:20:55;2.58;;;2.35;;
7523;SDS011;3803;51.666;7.630;2022-07-04T01:21:16;2.75;;;2.35;;
7523;SDS011;3803;51.666;7.630;2022-07-04T01:21:37;2.77;;;2.40;;
7523;SDS011;3803;51.666;7.630;2022-07-04T01:22:03;3.20;;;2.35;;
7523;SDS011;3803;51.666;7.630;2022-07-04T01:22:26;3.97;;;2.30;;
7523;SDS011;3803;51.666;7.630;2022-07-04T01:22:47;3.92;;;2.15;;
7523;SDS011;3803;51.666;7.630;2022-07-04T01:23:08;4.03;;;2.10;;
7523;SDS011;3803;51.666;7.630;2022-07-04T01:23:30;3.17;;;2.20;;
7523;SDS011;3803;51.666;7.630;2022-07-04T01:23:50;3.67;;;2.25;;
7523;SDS011;3803;51.666;7.630;2022-07-04T01:24:12;3.92;;;2.35;;
7523;SDS011;3803;51.666;7.630;2022-07-04T01:24:33;4.40;;;2.40;;
7523;SDS011;3803;51.666;7.630;2022-07-04T01:24:54;3.50;;;2.50;;
7523;SDS011;3803;51.666;7.630;2022-07-04T01:25:15;3.10;;;2.60;;
7523;SDS011;3803;51.666;7.630;2022-07-04T01:25:35;3.07;;;2.77;;
7523;SDS011;3803;51.666;7.630;2022-07-04T01:25:56;3.65;;;2.78;;
7523;SDS011;3803;51.666;7.630;2022-07-04T01:26:18;5.03;;;2.75;;
7523;SDS011;3803;51.666;7.630;2022-07-04T01:26:39;4.88;;;2.53;;
7523;SDS011;3803;51.666;7.630;2022-07-04T01:26:59;4.20;;;2.40;;
7523;SDS011;3803;51.666;7.630;2022-07-04T01:27:20;2.92;;;2.38;;
7523;SDS011;3803;51.666;7.630;2022-07-04T01:27:41;2.92;;;2.30;;
7523;SDS011;3803;51.666;7.630;2022-07-04T01:28:02;2.73;;;2.33;;
7523;SDS011;3803;51.666;7.630;2022-07-04T01:28:23;3.97;;;2.33;;
7523;SDS011;3803;51.666;7.630;2022-07-04T01:28:44;4.10;;;2.42;;
7523;SDS011;3803;51.666;7.630;2022-07-04T01:29:06;3.97;;;2.42;;
7523;SDS011;3803;51.666;7.630;2022-07-04T01:29:27;2.80;;;2.30;;
7523;SDS011;3803;51.666;7.630;2022-07-04T01:29:48;3.60;;;2.40;;
7523;SDS011;3803;51.666;7.630;2022-07-04T01:30:09;3.35;;;2.35;;
7523;SDS011;3803;51.666;7.630;2022-07-04T01:30:30;3.08;;;2.28;;
7523;SDS011;3803;51.666;7.630;2022-07-04T01:30:51;2.50;;;2.30;;
7523;SDS011;3803;51.666;7.630;2022-07-04T01:31:12;2.83;;;2.53;;
7523;SDS011;3803;51.666;7.630;2022-07-04T01:31:33;2.78;;;2.50;;
7523;SDS011;3803;51.666;7.630;2022-07-04T01:31:53;3.90;;;2.58;;
7523;SDS011;3803;51.666;7.630;2022-07-04T01:32:14;4.63;;;2.70;;
7523;SDS011;3803;51.666;7.630;2022-07-04T01:32:35;4.32;;;2.90;;
7523;SDS011;3803;51.666;7.630;2022-07-04T01:32:56;3.00;;;2.70;;
7523;SDS011;3803;51.666;7.630;2022-07-04T01:33:17;3.87;;;2.77;;
7523;SDS011;3803;51.666;7.630;2022-07-04T01:33:38;5.20;;;2.88;;
7523;SDS011;3803;51.666;7.630;2022-07-04T01:33:59;5.85;;;2.80;;
7523;SDS011;3803;51.666;7.630;2022-07-04T01:34:20;4.32;;;2.55;;
7523;SDS011;3803;51.666;7.630;2022-07-04T01:34:40;3.53;;;2.47;;
7523;SDS011;3803;51.666;7.630;2022-07-04T01:35:01;2.60;;;2.40;;
7523;SDS011;3803;51.666;7.630;2022-07-04T01:35:22;2.50;;;2.30;;
7523;SDS011;3803;51.666;7.630;2022-07-04T01:35:44;2.40;;;2.20;;
7523;SDS011;3803;51.666;7.630;2022-07-04T01:36:05;3.40;;;2.30;;
7523;SDS011;3803;51.666;7.630;2022-07-04T01:36:26;3.58;;;2.28;;
7523;SDS011;3803;51.666;7.630;2022-07-04T01:36:47;3.60;;;2.22;;
7523;SDS011;3803;51.666;7.630;2022-07-04T01:37:08;2.40;;;2.20;;
7523;SDS011;3803;51.666;7.630;2022-07-04T01:37:29;2.50;;;2.30;;
7523;SDS011;3803;51.666;7.630;2022-07-04T01:37:50;3.67;;;2.50;;
7523;SDS011;3803;51.666;7.630;2022-07-04T01:38:11;4.10;;;2.50;;
7523;SDS011;3803;51.666;7.630;2022-07-04T01:38:32;3.72;;;2.45;;
7523;SDS011;3803;51.666;7.630;2022-07-04T01:38:53;2.58;;;2.30;;
7523;SDS011;3803;51.666;7.630;2022-07-04T01:39:14;2.63;;;2.42;;
7523;SDS011;3803;51.666;7.630;2022-07-04T01:39:35;2.78;;;2.58;;
7523;SDS011;3803;51.666;7.630;2022-07-04T01:39:55;3.88;;;2.78;;
7523;SDS011;3803;51.666;7.630;2022-07-04T01:40:16;3.50;;;2.67;;
7523;SDS011;3803;51.666;7.630;2022-07-04T01:40:38;3.30;;;2.70;;
7523;SDS011;3803;51.666;7.630;2022-07-04T01:40:59;2.70;;;2.50;;
7523;SDS011;3803;51.666;7.630;2022-07-04T01:41:20;2.80;;;2.50;;
7523;SDS011;3803;51.666;7.630;2022-07-04T01:41:41;3.00;;;2.43;;
7523;SDS011;3803;51.666;7.630;2022-07-04T01:42:01;2.58;;;2.38;;
7523;SDS011;3803;51.666;7.630;2022-07-04T01:42:22;2.50;;;2.30;;
7523;SDS011;3803;51.666;7.630;2022-07-04T01:42:43;3.00;;;2.50;;
7523;SDS011;3803;51.666;7.630;2022-07-04T01:43:04;3.33;;;2.60;;
7523;SDS011;3803;51.666;7.630;2022-07-04T01:43:25;3.33;;;2.58;;
7523;SDS011;3803;51.666;7.630;2022-07-04T01:43:46;3.83;;;2.60;;
7523;SDS011;3803;51.666;7.630;2022-07-04T01:44:06;4.30;;;2.60;;
7523;SDS011;3803;51.666;7.630;2022-07-04T01:44:27;4.38;;;2.63;;
7523;SDS011;3803;51.666;7.630;2022-07-04T01:44:48;3.23;;;2.50;;
7523;SDS011;3803;51.666;7.630;2022-07-04T01:45:09;2.63;;;2.42;;
7523;SDS011;3803;51.666;7.630;2022-07-04T01:45:30;2.60;;;2.40;;
7523;SDS011;3803;51.666;7.630;2022-07-04T01:45:54;2.70;;;2.50;;
7523;SDS011;3803;51.666;7.630;2022-07-04T01:46:15;2.90;;;2.70;;
7523;SDS011;3803;51.666;7.630;2022-07-04T01:46:35;3.07;;;2.77;;
7523;SDS011;3803;51.666;7.630;2022-07-04T01:46:56;2.90;;;2.70;;
7523;SDS011;3803;51.666;7.630;2022-07-04T01:47:17;2.60;;;2.40;;
7523;SDS011;3803;51.666;7.630;2022-07-04T01:47:38;2.80;;;2.50;;
7523;SDS011;3803;51.666;7.630;2022-07-04T01:48:00;2.60;;;2.30;;
7523;SDS011;3803;51.666;7.630;2022-07-04T01:48:21;3.30;;;2.30;;
7523;SDS011;3803;51.666;7.630;2022-07-04T01:48:41;2.70;;;2.20;;
7523;SDS011;3803;51.666;7.630;2022-07-04T01:49:02;2.73;;;2.30;;
7523;SDS011;3803;51.666;7.630;2022-07-04T01:49:23;2.40;;;2.20;;
7523;SDS011;3803;51.666;7.630;2022-07-04T01:49:44;3.60;;;2.50;;
7523;SDS011;3803;51.666;7.630;2022-07-04T01:50:05;3.70;;;2.63;;
7523;SDS011;3803;51.666;7.630;2022-07-04T01:50:27;4.85;;;3.03;;
7523;SDS011;3803;51.666;7.630;2022-07-04T01:50:48;3.40;;;3.00;;
7523;SDS011;3803;51.666;7.630;2022-07-04T01:51:17;3.58;;;3.08;;
7523;SDS011;3803;51.666;7.630;2022-07-04T01:51:45;3.33;;;3.00;;
7523;SDS011;3803;51.666;7.630;2022-07-04T01:52:06;3.17;;;2.63;;
7523;SDS011;3803;51.666;7.630;2022-07-04T01:52:27;2.87;;;2.50;;
7523;SDS011;3803;51.666;7.630;2022-07-04T01:52:48;2.80;;;2.50;;
7523;SDS011;3803;51.666;7.630;2022-07-04T01:53:09;2.80;;;2.60;;
7523;SDS011;3803;51.666;7.630;2022-07-04T01:53:31;2.95;;;2.70;;
7523;SDS011;3803;51.666;7.630;2022-07-04T01:53:56;3.05;;;2.75;;
7523;SDS011;3803;51.666;7.630;2022-07-04T01:54:17;3.00;;;2.70;;
7523;SDS011;3803;51.666;7.630;2022-07-04T01:54:38;3.60;;;2.80;;
7523;SDS011;3803;51.666;7.630;2022-07-04T01:54:59;3.53;;;2.70;;
7523;SDS011;3803;51.666;7.630;2022-07-04T01:55:21;3.42;;;2.75;;
7523;SDS011;3803;51.666;7.630;2022-07-04T01:55:41;2.90;;;2.70;;
7523;SDS011;3803;51.666;7.630;2022-07-04T01:56:03;3.35;;;2.72;;
7523;SDS011;3803;51.666;7.630;2022-07-04T01:56:24;3.23;;;2.70;;
7523;SDS011;3803;51.666;7.630;2022-07-04T01:56:45;3.83;;;2.60;;
7523;SDS011;3803;51.666;7.630;2022-07-04T01:57:05;3.00;;;2.70;;
7523;SDS011;3803;51.666;7.630;2022-07-04T01:57:26;3.33;;;2.70;;
7523;SDS011;3803;51.666;7.630;2022-07-04T01:57:47;3.47;;;2.72;;
7523;SDS011;3803;51.666;7.630;2022-07-04T01:58:08;3.60;;;2.80;;
7523;SDS011;3803;51.666;7.630;2022-07-04T01:58:28;2.92;;;2.65;;
7523;SDS011;3803;51.666;7.630;2022-07-04T01:58:49;2.70;;;2.50;;
7523;SDS011;3803;51.666;7.630;2022-07-04T01:59:11;2.70;;;2.45;;
7523;SDS011;3803;51.666;7.630;2022-07-04T01:59:32;3.20;;;2.60;;
7523;SDS011;3803;51.666;7.630;2022-07-04T02:00:11;3.45;;;2.60;;
7523;SDS011;3803;51.666;7.630;2022-07-04T02:00:51;2.60;;;2.25;;
7523;SDS011;3803;51.666;7.630;2022-07-04T02:01:30;2.90;;;2.60;;
7523;SDS011;3803;51.666;7.630;2022-07-04T02:01:52;2.90;;;2.70;;
7523;SDS011;3803;51.666;7.630;2022-07-04T02:02:13;2.80;;;2.40;;
7523;SDS011;3803;51.666;7.630;2022-07-04T02:02:33;2.80;;;2.40;;
7523;SDS011;3803;51.666;7.630;2022-07-04T02:02:55;2.90;;;2.60;;
7523;SDS011;3803;51.666;7.630;2022-07-04T02:03:16;3.30;;;2.80;;
7523;SDS011;3803;51.666;7.630;2022-07-04T02:03:37;3.53;;;2.75;;
7523;SDS011;3803;51.666;7.630;2022-07-04T02:03:58;4.03;;;2.78;;
7523;SDS011;3803;51.666;7.630;2022-07-04T02:04:20;3.63;;;2.60;;
7523;SDS011;3803;51.666;7.630;2022-07-04T02:04:41;3.57;;;2.70;;
7523;SDS011;3803;51.666;7.630;2022-07-04T02:05:03;3.10;;;2.60;;
7523;SDS011;3803;51.666;7.630;2022-07-04T02:05:24;2.83;;;2.50;;
7523;SDS011;3803;51.666;7.630;2022-07-04T02:05:45;2.80;;;2.60;;
7523;SDS011;3803;51.666;7.630;2022-07-04T02:06:05;3.00;;;2.70;;
7523;SDS011;3803;51.666;7.630;2022-07-04T02:06:27;2.90;;;2.70;;
7523;SDS011;3803;51.666;7.630;2022-07-04T02:06:48;2.85;;;2.65;;
7523;SDS011;3803;51.666;7.630;2022-07-04T02:07:09;2.80;;;2.60;;
7523;SDS011;3803;51.666;7.630;2022-07-04T02:07:30;3.35;;;2.50;;
7523;SDS011;3803;51.666;7.630;2022-07-04T02:07:52;12.10;;;2.60;;
7523;SDS011;3803;51.666;7.630;2022-07-04T02:08:13;12.20;;;2.77;;
7523;SDS011;3803;51.666;7.630;2022-07-04T02:08:33;11.10;;;2.80;;
7523;SDS011;3803;51.666;7.630;2022-07-04T02:09:12;3.17;;;2.70;;
7523;SDS011;3803;51.666;7.630;2022-07-04T02:09:35;4.13;;;3.03;;
7523;SDS011;3803;51.666;7.630;2022-07-04T02:09:56;4.20;;;2.90;;
7523;SDS011;3803;51.666;7.630;2022-07-04T02:10:17;3.97;;;2.80;;
7523;SDS011;3803;51.666;7.630;2022-07-04T02:10:38;3.72;;;2.60;;
7523;SDS011;3803;51.666;7.630;2022-07-04T02:11:00;3.17;;;2.80;;
7523;SDS011;3803;51.666;7.630;2022-07-04T02:11:20;3.10;;;2.80;;
7523;SDS011;3803;51.666;7.630;2022-07-04T02:11:41;3.03;;;2.80;;
7523;SDS011;3803;51.666;7.630;2022-07-04T02:12:21;2.70;;;2.50;;
7523;SDS011;3803;51.666;7.630;2022-07-04T02:13:01;2.83;;;2.63;;
7523;SDS011;3803;51.666;7.630;2022-07-04T02:13:22;3.53;;;2.92;;
7523;SDS011;3803;51.666;7.630;2022-07-04T02:13:43;3.90;;;3.10;;
7523;SDS011;3803;51.666;7.630;2022-07-04T02:14:05;4.80;;;3.00;;
7523;SDS011;3803;51.666;7.630;2022-07-04T02:14:25;3.92;;;3.00;;
7523;SDS011;3803;51.666;7.630;2022-07-04T02:14:46;5.47;;;3.30;;
7523;SDS011;3803;51.666;7.630;2022-07-04T02:15:07;5.40;;;3.67;;
7523;SDS011;3803;51.666;7.630;2022-07-04T02:15:29;5.65;;;3.60;;
7523;SDS011;3803;51.666;7.630;2022-07-04T02:16:01;3.35;;;2.95;;
7523;SDS011;3803;51.666;7.630;2022-07-04T02:16:21;3.10;;;2.80;;
7523;SDS011;3803;51.666;7.630;2022-07-04T02:16:42;2.70;;;2.50;;